Time;durP1;ratioP1;P1;durP2;ratioP2;P2;SDS_P1;SDS_P2;PMS_P1;PMS_P2;Temp;Humidity;BMP_temperature;BMP_pressure;BME280_temperature;BME280_humidity;BME280_pressure;Samples;Min_cycle;Max_cycle;Signal;HPM_P1;HPM_P2
2021/10/27 00:00:12;;;;;;;1072.68;999.65;;;;;;;11.35;68.65;101710.84;693212;28;23483;-67
2021/10/27 00:00:37;;;;;;;1069.97;998.25;;;;;;;11.37;68.51;101708.81;689972;28;136260;-67
2021/10/27 00:00:58;;;;;;;1077.90;999.90;;;;;;;11.36;68.40;101707.09;693814;28;23479;-67
2021/10/27 00:01:19;;;;;;;1075.65;999.90;;;;;;;11.38;68.17;101710.53;694769;28;22399;-67
2021/10/27 00:01:43;;;;;;;1074.95;999.90;;;;;;;11.36;68.27;101705.28;694713;28;23072;-67
2021/10/27 00:02:04;;;;;;;1078.05;999.90;;;;;;;11.37;68.21;101703.41;692246;28;92231;-67
2021/10/27 00:02:26;;;;;;;1078.57;999.90;;;;;;;11.36;68.38;101704.41;696430;28;1120;-67
2021/10/27 00:02:48;;;;;;;1076.55;999.90;;;;;;;11.38;68.47;101705.13;695327;28;21655;-67
2021/10/27 00:03:10;;;;;;;1076.50;999.90;;;;;;;11.38;68.15;101702.41;692106;28;67436;-67
2021/10/27 00:03:31;;;;;;;1075.00;999.90;;;;;;;11.40;68.25;101691.44;693347;28;21650;-67
2021/10/27 00:03:52;;;;;;;1078.15;999.90;;;;;;;11.39;68.04;101698.69;693701;28;22380;-67
2021/10/27 00:04:14;;;;;;;1075.80;999.90;;;;;;;11.37;68.20;101698.00;694048;28;22383;-67
2021/10/27 00:04:36;;;;;;;1083.25;999.90;;;;;;;11.35;68.34;101694.63;694704;28;1663;-67
2021/10/27 00:04:57;;;;;;;1096.82;999.90;;;;;;;11.37;68.30;101700.69;692488;28;45074;-67
2021/10/27 00:05:19;;;;;;;1085.45;999.90;;;;;;;11.38;68.29;101701.53;693066;28;48670;-67
2021/10/27 00:05:41;;;;;;;1083.95;999.90;;;;;;;11.37;68.29;101698.00;694695;28;22397;-67
2021/10/27 00:06:02;;;;;;;1079.10;999.90;;;;;;;11.35;68.57;101703.56;693753;28;45310;-67
2021/10/27 00:06:23;;;;;;;1079.53;999.90;;;;;;;11.35;68.41;101708.13;692196;28;22330;-67
2021/10/27 00:06:44;;;;;;;1089.00;999.90;;;;;;;11.35;68.64;101702.72;692210;28;21518;-67
2021/10/27 00:07:06;;;;;;;1089.07;999.90;;;;;;;11.35;68.79;101710.84;692084;28;21453;-67
2021/10/27 00:07:28;;;;;;;1086.82;999.90;;;;;;;11.33;68.66;101702.00;693513;28;46308;-67
2021/10/27 00:07:50;;;;;;;1086.32;999.90;;;;;;;11.32;68.74;101712.00;692946;28;47192;-67
2021/10/27 00:08:11;;;;;;;1084.18;999.90;;;;;;;11.34;68.46;101715.38;693448;28;46287;-67
2021/10/27 00:08:33;;;;;;;1087.78;999.90;;;;;;;11.35;68.36;101717.09;694310;28;22382;-66
2021/10/27 00:08:55;;;;;;;1082.30;999.90;;;;;;;11.39;68.02;101711.38;693307;28;46379;-66
2021/10/27 00:09:16;;;;;;;1081.28;999.90;;;;;;;11.38;68.49;101709.66;693727;28;45245;-67
2021/10/27 00:09:37;;;;;;;1076.82;999.90;;;;;;;11.39;68.57;101708.66;694658;28;23303;-67
2021/10/27 00:10:00;;;;;;;1085.65;999.90;;;;;;;11.38;68.30;101704.25;693429;28;23430;-67
2021/10/27 00:10:21;;;;;;;1080.53;999.90;;;;;;;11.35;68.32;101708.97;693245;28;57293;-67
2021/10/27 00:10:42;;;;;;;1073.68;999.90;;;;;;;11.34;68.40;101709.97;694215;28;22410;-67
2021/10/27 00:11:04;;;;;;;1073.32;999.90;;;;;;;11.36;68.60;101716.09;694011;28;23425;-67
2021/10/27 00:11:26;;;;;;;1073.82;999.90;;;;;;;11.36;68.53;101710.69;693990;28;46315;-67
2021/10/27 00:11:47;;;;;;;1072.55;999.90;;;;;;;11.36;68.47;101709.81;693828;28;45050;-67
2021/10/27 00:12:08;;;;;;;1069.43;997.70;;;;;;;11.34;68.61;101718.09;694163;28;23417;-67
2021/10/27 00:12:29;;;;;;;1079.22;999.90;;;;;;;11.34;68.78;101715.38;694788;28;21522;-66
2021/10/27 00:12:51;;;;;;;1083.85;999.90;;;;;;;11.36;68.69;101717.94;694242;28;22371;-67
2021/10/27 00:13:13;;;;;;;1069.93;998.13;;;;;;;11.34;68.61;101709.97;692097;28;67552;-66
2021/10/27 00:13:34;;;;;;;1078.20;999.90;;;;;;;11.33;68.78;101715.53;693796;28;46344;-67
2021/10/27 00:13:55;;;;;;;1079.38;999.90;;;;;;;11.31;68.75;101721.09;694614;28;23389;-67
2021/10/27 00:14:17;;;;;;;1070.47;998.67;;;;;;;11.35;68.52;101713.53;694467;28;23664;-67
2021/10/27 00:14:38;;;;;;;1069.75;997.95;;;;;;;11.34;68.52;101715.38;693930;28;47541;-66
2021/10/27 00:14:59;;;;;;;1073.40;999.90;;;;;;;11.35;68.40;101713.53;693713;28;23562;-67
2021/10/27 00:15:21;;;;;;;1071.67;999.70;;;;;;;11.35;68.65;101722.50;695091;28;9070;-66
2021/10/27 00:15:43;;;;;;;1069.75;998.00;;;;;;;11.34;68.43;101709.97;693750;28;46298;-67
2021/10/27 00:16:06;;;;;;;1075.88;999.90;;;;;;;11.33;68.47;101719.13;693925;28;45049;-67
2021/10/27 00:16:27;;;;;;;1077.53;999.90;;;;;;;11.33;68.80;101719.13;693264;28;51542;-67
2021/10/27 00:16:48;;;;;;;1082.88;999.90;;;;;;;11.32;68.76;101719.28;694518;28;22626;-66
2021/10/27 00:17:11;;;;;;;1084.20;999.90;;;;;;;11.33;68.40;101721.81;694118;28;22473;-67
2021/10/27 00:17:33;;;;;;;1081.70;999.90;;;;;;;11.33;68.77;101718.25;692194;28;69374;-67
2021/10/27 00:17:54;;;;;;;1089.18;999.90;;;;;;;11.34;68.90;101728.06;693061;28;46320;-67
2021/10/27 00:18:16;;;;;;;1099.78;999.90;;;;;;;11.34;68.44;101726.19;693942;28;23543;-67
2021/10/27 00:18:38;;;;;;;1079.85;999.90;;;;;;;11.35;68.66;101721.66;693735;28;46300;-66
2021/10/27 00:18:59;;;;;;;1078.32;999.90;;;;;;;11.35;68.50;101718.94;693314;28;47122;-67
2021/10/27 00:19:20;;;;;;;1078.45;999.90;;;;;;;11.35;68.70;101724.38;694519;28;23407;-67
2021/10/27 00:19:43;;;;;;;1079.68;999.90;;;;;;;11.31;68.27;101710.28;694902;28;1630;-66
2021/10/27 00:20:06;;;;;;;1077.65;999.90;;;;;;;11.33;68.70;101723.66;692762;28;45129;-67
2021/10/27 00:20:27;;;;;;;1088.43;999.90;;;;;;;11.32;68.73;101719.28;691736;28;92267;-67
2021/10/27 00:20:49;;;;;;;1096.45;999.90;;;;;;;11.30;68.75;101719.44;693606;28;21552;-67
2021/10/27 00:21:11;;;;;;;1109.85;999.90;;;;;;;11.32;68.80;101727.38;693554;28;46318;-67
2021/10/27 00:21:32;;;;;;;1078.05;999.90;;;;;;;11.32;68.48;101724.69;694340;28;46244;-67
2021/10/27 00:21:53;;;;;;;1081.47;999.90;;;;;;;11.33;68.81;101724.53;695053;28;22338;-67
2021/10/27 00:22:14;;;;;;;1080.93;999.90;;;;;;;11.33;68.66;101721.81;695432;28;23528;-67
2021/10/27 00:22:36;;;;;;;1082.65;999.90;;;;;;;11.34;68.51;101719.94;695070;28;22399;-67
2021/10/27 00:22:59;;;;;;;1074.70;999.90;;;;;;;11.33;68.55;101724.53;694261;28;47224;-67
2021/10/27 00:23:20;;;;;;;1074.80;999.90;;;;;;;11.34;68.47;101717.25;693078;28;69207;-67
2021/10/27 00:23:41;;;;;;;1076.60;999.90;;;;;;;11.32;68.47;101720.09;694367;28;21320;-67
2021/10/27 00:24:04;;;;;;;1066.88;995.17;;;;;;;11.32;68.54;101722.81;694100;28;23376;-67
2021/10/27 00:24:25;;;;;;;1077.60;999.90;;;;;;;11.33;68.76;101723.66;692629;28;70221;-67
2021/10/27 00:24:46;;;;;;;1088.05;999.90;;;;;;;11.33;68.65;101721.81;694523;28;23497;-66
2021/10/27 00:25:08;;;;;;;1096.97;999.90;;;;;;;11.32;68.75;101719.28;693752;28;20887;-67
2021/10/27 00:25:31;;;;;;;1091.80;999.90;;;;;;;11.33;68.36;101729.06;693374;28;45214;-67
2021/10/27 00:25:52;;;;;;;1073.53;999.90;;;;;;;11.36;68.31;101723.34;692820;28;44395;-67
2021/10/27 00:26:13;;;;;;;1078.53;999.90;;;;;;;11.33;68.33;101718.25;694304;28;21618;-67
2021/10/27 00:26:34;;;;;;;1077.95;999.90;;;;;;;11.34;68.51;101726.19;693330;28;46312;-67
2021/10/27 00:26:56;;;;;;;1072.47;999.90;;;;;;;11.35;68.36;101722.50;691665;28;22389;-67
2021/10/27 00:27:27;;;;;;;1079.28;999.90;;;;;;;11.36;68.51;101723.34;689962;28;98128;-66
2021/10/27 00:27:48;;;;;;;1077.05;999.90;;;;;;;11.35;68.44;101730.63;693566;28;24107;-67
2021/10/27 00:28:09;;;;;;;1078.68;999.90;;;;;;;11.35;68.68;101719.78;695239;28;22393;-67
2021/10/27 00:28:31;;;;;;;1070.93;999.03;;;;;;;11.31;68.42;101723.81;695319;28;21539;-67
2021/10/27 00:28:52;;;;;;;1072.38;999.85;;;;;;;11.34;68.22;101728.91;693734;28;45202;-66
2021/10/27 00:29:13;;;;;;;1072.38;999.67;;;;;;;11.35;68.32;101719.78;694281;28;23422;-67
2021/10/27 00:29:35;;;;;;;1086.80;999.90;;;;;;;11.35;68.33;101724.38;694750;28;21389;-67
2021/10/27 00:29:57;;;;;;;1087.72;999.90;;;;;;;11.35;68.49;101718.94;693960;28;21535;-67
2021/10/27 00:30:18;;;;;;;1097.88;999.90;;;;;;;11.33;68.69;101719.13;693509;28;46345;-67
2021/10/27 00:30:39;;;;;;;1109.15;999.90;;;;;;;11.35;68.44;101718.94;694350;28;22395;-66
2021/10/27 00:31:00;;;;;;;1101.35;999.90;;;;;;;11.35;68.22;101727.91;693206;28;44388;-67
2021/10/27 00:31:23;;;;;;;1075.85;999.90;;;;;;;11.37;68.20;101725.03;694598;28;22393;-67
2021/10/27 00:31:44;;;;;;;1073.25;999.90;;;;;;;11.37;68.53;101714.22;692722;28;69394;-67
2021/10/27 00:32:06;;;;;;;1079.63;999.90;;;;;;;11.38;68.12;101715.94;693957;28;23464;-66
2021/10/27 00:32:27;;;;;;;1080.45;999.90;;;;;;;11.36;68.26;101720.63;693507;28;45099;-66
2021/10/27 00:32:50;;;;;;;1085.22;999.90;;;;;;;11.37;68.33;101725.03;694553;28;21563;-67
2021/10/27 00:33:13;;;;;;;1078.95;999.90;;;;;;;11.37;68.45;101722.34;693379;28;46377;-67
2021/10/27 00:33:36;;;;;;;1072.55;999.90;;;;;;;11.39;68.16;101724.88;693711;28;50418;-66
2021/10/27 00:33:57;;;;;;;1074.78;999.90;;;;;;;11.42;67.97;101720.00;692967;28;69058;-66
2021/10/27 00:34:19;;;;;;;1077.30;999.90;;;;;;;11.44;68.07;101725.25;694346;28;22430;-67
2021/10/27 00:34:41;;;;;;;1072.40;999.90;;;;;;;11.43;68.19;101732.53;693557;28;47147;-67
2021/10/27 00:35:02;;;;;;;1074.72;999.90;;;;;;;11.44;68.05;101725.25;693756;28;24362;-67
2021/10/27 00:35:23;;;;;;;1079.90;999.90;;;;;;;11.44;68.18;101727.97;692855;28;46160;-67
2021/10/27 00:35:44;;;;;;;1073.70;999.90;;;;;;;11.43;68.15;101731.69;693847;28;22460;-67
2021/10/27 00:36:07;;;;;;;1078.22;999.90;;;;;;;11.42;67.99;101730.81;693692;28;23455;-66
2021/10/27 00:36:28;;;;;;;1088.28;999.90;;;;;;;11.42;67.99;101729.97;692639;28;69398;-67
2021/10/27 00:36:49;;;;;;;1083.53;999.90;;;;;;;11.43;68.17;101728.97;693707;28;22378;-67
2021/10/27 00:37:10;;;;;;;1085.53;999.90;;;;;;;11.41;68.06;101728.28;693868;28;22337;-67
2021/10/27 00:37:31;;;;;;;1083.38;999.90;;;;;;;11.42;68.25;101730.81;694228;28;23494;-67
2021/10/27 00:37:53;;;;;;;1081.28;999.90;;;;;;;11.42;68.10;101727.28;693940;28;22375;-67
2021/10/27 00:38:16;;;;;;;1080.85;999.90;;;;;;;11.41;68.29;101726.44;693576;28;45244;-67
2021/10/27 00:38:37;;;;;;;1078.50;999.90;;;;;;;11.39;68.27;101727.59;692733;28;68420;-66
2021/10/27 00:38:59;;;;;;;1077.40;999.90;;;;;;;11.39;68.11;101731.13;694130;28;21221;-66
2021/10/27 00:39:20;;;;;;;1076.97;999.90;;;;;;;11.39;68.43;101727.59;693685;28;46346;-67
2021/10/27 00:39:44;;;;;;;1081.93;999.90;;;;;;;11.40;68.27;101723.88;694325;28;23480;-67
2021/10/27 00:40:06;;;;;;;1075.20;999.90;;;;;;;11.39;68.28;101720.31;691362;28;90118;-67
2021/10/27 00:40:28;;;;;;;1077.03;999.90;;;;;;;11.36;68.15;101724.22;692957;28;45221;-67
2021/10/27 00:40:49;;;;;;;1079.13;999.90;;;;;;;11.38;68.16;101721.34;692810;28;46449;-66
2021/10/27 00:41:11;;;;;;;1078.68;999.90;;;;;;;11.36;68.26;101718.78;694262;28;22577;-67
2021/10/27 00:41:33;;;;;;;1080.93;999.90;;;;;;;11.39;68.06;101727.59;694968;28;9519;-66
2021/10/27 00:41:54;;;;;;;1082.35;999.90;;;;;;;11.36;68.15;101718.78;693089;28;45422;-67
2021/10/27 00:42:15;;;;;;;1092.03;999.90;;;;;;;11.41;68.04;101720.16;693779;28;22444;-67
2021/10/27 00:42:36;;;;;;;1088.63;999.90;;;;;;;11.40;68.16;101721.19;693467;28;47231;-67
2021/10/27 00:42:58;;;;;;;1089.03;999.90;;;;;;;11.41;68.15;101725.56;693598;28;23814;-66
2021/10/27 00:43:19;;;;;;;1091.05;999.90;;;;;;;11.40;68.10;101729.31;692984;28;46292;-66
2021/10/27 00:43:40;;;;;;;1087.78;999.90;;;;;;;11.41;68.01;101723.72;693799;28;22407;-67
2021/10/27 00:44:01;;;;;;;1079.82;999.90;;;;;;;11.39;68.20;101719.47;693969;28;23496;-67
2021/10/27 00:44:25;;;;;;;1074.63;999.90;;;;;;;11.42;68.09;101711.03;694695;28;23402;-67
2021/10/27 00:44:46;;;;;;;1076.38;999.90;;;;;;;11.40;67.91;101719.31;691572;28;92290;-67
2021/10/27 00:45:08;;;;;;;1083.75;999.90;;;;;;;11.38;68.08;101720.47;693513;28;21577;-66
2021/10/27 00:45:29;;;;;;;1080.35;999.90;;;;;;;11.36;68.04;101723.34;693084;28;47362;-66
2021/10/27 00:45:51;;;;;;;1087.38;999.90;;;;;;;11.41;67.81;101723.72;693703;28;23530;-66
2021/10/27 00:46:19;;;;;;;1081.15;999.90;;;;;;;11.41;68.22;101718.31;693971;28;45469;-67
2021/10/27 00:46:40;;;;;;;1081.15;999.90;;;;;;;11.41;67.88;101723.72;690376;28;137718;-67
2021/10/27 00:47:04;;;;;;;1086.72;999.90;;;;;;;11.41;68.11;101728.28;693621;28;21349;-67
2021/10/27 00:47:26;;;;;;;1082.55;999.90;;;;;;;11.39;68.15;101722.19;692820;28;68432;-67
2021/10/27 00:47:47;;;;;;;1080.35;999.90;;;;;;;11.38;68.14;101721.34;692838;28;46263;-67
2021/10/27 00:48:08;;;;;;;1082.57;999.90;;;;;;;11.37;68.10;101719.63;694136;28;22374;-67
2021/10/27 00:48:29;;;;;;;1068.72;996.95;;;;;;;11.38;68.04;101723.19;693606;28;46380;-66
2021/10/27 00:48:52;;;;;;;1078.47;999.90;;;;;;;11.38;68.35;101725.88;694066;28;22279;-67
2021/10/27 00:49:13;;;;;;;1074.78;999.90;;;;;;;11.37;68.08;101719.63;692961;28;69376;-67
2021/10/27 00:49:36;;;;;;;1075.70;999.90;;;;;;;11.36;68.31;101723.34;695205;28;21570;-67
2021/10/27 00:49:57;;;;;;;1085.38;999.90;;;;;;;11.34;68.22;101720.78;692969;28;69123;-67
2021/10/27 00:50:20;;;;;;;1083.95;999.90;;;;;;;11.36;68.19;101726.03;695279;28;20859;-66
2021/10/27 00:50:41;;;;;;;1089.85;999.90;;;;;;;11.39;67.94;101730.28;690932;28;44351;-66
2021/10/27 00:51:02;;;;;;;1079.95;999.90;;;;;;;11.39;67.88;101719.47;692914;28;22236;-67
2021/10/27 00:51:23;;;;;;;1071.13;999.33;;;;;;;11.38;67.93;101721.34;695048;28;22435;-67
2021/10/27 00:51:45;;;;;;;1071.22;999.38;;;;;;;11.42;68.09;101730.81;695169;28;21363;-66
2021/10/27 00:52:10;;;;;;;1075.95;999.90;;;;;;;11.42;68.09;101725.41;694139;28;45337;-67
2021/10/27 00:52:31;;;;;;;1076.85;999.90;;;;;;;11.43;68.09;101718.16;691565;28;113585;-66
2021/10/27 00:52:52;;;;;;;1078.43;999.90;;;;;;;11.42;67.99;101717.28;694208;28;23554;-66
2021/10/27 00:53:13;;;;;;;1072.28;999.90;;;;;;;11.39;67.79;101720.31;694515;28;22398;-67
2021/10/27 00:53:38;;;;;;;1078.97;999.90;;;;;;;11.42;67.91;101719.16;693668;28;45262;-67
2021/10/27 00:54:01;;;;;;;1078.20;999.90;;;;;;;11.36;67.53;101716.09;690899;28;115052;-67
2021/10/27 00:54:23;;;;;;;1087.07;999.90;;;;;;;11.43;67.85;101719.00;692520;28;69448;-67
2021/10/27 00:54:46;;;;;;;1099.25;999.90;;;;;;;11.41;67.69;101712.91;694342;28;21537;-67
2021/10/27 00:55:09;;;;;;;1077.82;999.90;;;;;;;11.40;68.10;101723.88;691208;28;91842;-67
2021/10/27 00:55:31;;;;;;;1078.15;999.90;;;;;;;11.40;67.97;101723.88;693450;28;44301;-67
2021/10/27 00:55:53;;;;;;;1084.07;999.90;;;;;;;11.39;67.78;101720.31;692827;28;46299;-66
2021/10/27 00:56:16;;;;;;;1082.80;999.90;;;;;;;11.38;67.89;101723.19;693479;28;46741;-67
2021/10/27 00:56:38;;;;;;;1094.57;999.90;;;;;;;11.38;68.15;101725.88;691728;28;90314;-67
2021/10/27 00:57:01;;;;;;;1093.60;999.90;;;;;;;11.38;68.10;101721.34;693624;28;46301;-67
2021/10/27 00:57:23;;;;;;;1082.28;999.90;;;;;;;11.37;67.98;101719.63;693651;28;46308;-66
2021/10/27 00:57:44;;;;;;;1100.25;999.90;;;;;;;11.39;68.13;101719.47;689265;28;45243;-67
2021/10/27 00:58:05;;;;;;;1107.22;999.90;;;;;;;11.38;67.84;101720.47;695321;28;21547;-66
2021/10/27 00:58:28;;;;;;;1085.00;999.90;;;;;;;11.38;67.82;101720.47;694423;28;46322;-66
2021/10/27 00:58:49;;;;;;;1077.32;999.90;;;;;;;11.37;68.07;101722.34;694445;28;43747;-67
2021/10/27 00:59:10;;;;;;;1084.65;999.90;;;;;;;11.36;68.17;101723.34;693403;28;46379;-67
2021/10/27 00:59:33;;;;;;;1081.78;999.90;;;;;;;11.36;67.86;101720.63;693962;28;21272;-67
2021/10/27 00:59:57;;;;;;;1067.05;995.33;;;;;;;11.36;68.01;101717.94;693092;28;46238;-67
2021/10/27 01:00:18;;;;;;;1069.63;997.63;;;;;;;11.40;67.92;101723.88;690490;28;111928;-67
2021/10/27 01:00:42;;;;;;;1074.45;999.90;;;;;;;11.39;67.92;101716.78;690997;28;92121;-67
2021/10/27 01:01:04;;;;;;;1072.75;999.90;;;;;;;11.38;67.83;101717.78;692983;28;4118;-66
2021/10/27 01:01:26;;;;;;;1071.80;999.28;;;;;;;11.37;68.01;101714.22;694172;28;23473;-67
2021/10/27 01:01:47;;;;;;;1067.05;995.42;;;;;;;11.37;68.04;101716.94;694261;28;15851;-67
2021/10/27 01:02:10;;;;;;;1078.10;999.90;;;;;;;11.35;68.19;101719.78;693351;28;46741;-67
2021/10/27 01:02:31;;;;;;;1077.35;999.90;;;;;;;11.35;68.08;101719.78;693525;28;45254;-66
2021/10/27 01:02:53;;;;;;;1073.30;999.90;;;;;;;11.34;67.63;101711.84;694058;28;22416;-66
2021/10/27 01:03:14;;;;;;;1072.72;999.90;;;;;;;11.34;67.87;101718.09;694223;28;44395;-66
2021/10/27 01:03:36;;;;;;;1070.38;998.60;;;;;;;11.33;67.97;101718.25;695167;28;23456;-67
2021/10/27 01:03:57;;;;;;;1066.82;995.13;;;;;;;11.32;68.30;101720.09;694360;28;44299;-66
2021/10/27 01:04:20;;;;;;;1067.10;995.40;;;;;;;11.34;68.01;101720.78;695196;28;21553;-65
2021/10/27 01:04:42;;;;;;;1067.13;995.40;;;;;;;11.33;68.20;101716.41;693409;28;70303;-67
2021/10/27 01:05:03;;;;;;;1075.95;999.90;;;;;;;11.33;68.08;101715.53;693019;28;46267;-66
2021/10/27 01:05:25;;;;;;;1078.22;999.90;;;;;;;11.32;68.22;101719.28;693267;28;45302;-67
2021/10/27 01:05:47;;;;;;;1063.00;991.45;;;;;;;11.33;68.18;101719.13;694209;28;23377;-67
2021/10/27 01:06:08;;;;;;;1071.28;999.10;;;;;;;11.33;67.99;101715.53;692205;28;66324;-67
2021/10/27 01:06:29;;;;;;;1076.38;999.90;;;;;;;11.30;68.05;101715.84;694121;28;22336;-66
2021/10/27 01:06:50;;;;;;;1070.28;998.45;;;;;;;11.29;68.06;101715.00;693758;28;21552;-66
2021/10/27 01:07:12;;;;;;;1070.15;998.35;;;;;;;11.27;68.44;101718.88;694353;28;21517;-66
2021/10/27 01:07:34;;;;;;;1078.18;999.90;;;;;;;11.28;68.31;101709.75;692646;28;70393;-66
2021/10/27 01:07:55;;;;;;;1076.28;999.90;;;;;;;11.28;68.13;101717.88;693866;28;23427;-67
2021/10/27 01:08:17;;;;;;;1072.80;999.90;;;;;;;11.26;68.31;101718.03;694213;28;21905;-67
2021/10/27 01:08:39;;;;;;;1072.55;999.90;;;;;;;11.27;68.36;101714.34;693692;28;47125;-66
2021/10/27 01:09:00;;;;;;;1077.10;999.90;;;;;;;11.25;68.17;101716.31;692572;28;69284;-67
2021/10/27 01:09:22;;;;;;;1076.95;999.90;;;;;;;11.27;68.49;101718.88;694265;28;22404;-67
2021/10/27 01:09:44;;;;;;;1078.93;999.90;;;;;;;11.27;68.19;101714.34;694112;28;22229;-67
2021/10/27 01:10:07;;;;;;;1071.10;999.20;;;;;;;11.27;68.22;101706.22;692864;28;46315;-67
2021/10/27 01:10:28;;;;;;;1078.05;999.90;;;;;;;11.27;68.35;101708.91;692611;28;67079;-67
2021/10/27 01:10:49;;;;;;;1074.05;999.90;;;;;;;11.27;68.22;101708.91;693845;28;23441;-67
2021/10/27 01:11:10;;;;;;;1075.22;999.90;;;;;;;11.27;68.09;101717.03;694429;28;23473;-67
2021/10/27 01:11:32;;;;;;;1070.30;998.50;;;;;;;11.27;68.11;101714.34;697114;28;21600;-67
2021/10/27 01:11:53;;;;;;;1070.20;998.40;;;;;;;11.29;68.36;101709.59;695853;28;46787;-67
2021/10/27 01:12:14;;;;;;;1080.23;999.90;;;;;;;11.31;67.95;101713.00;696111;28;45264;-67
2021/10/27 01:12:35;;;;;;;1080.28;999.90;;;;;;;11.28;68.09;101704.34;695672;28;47277;-67
2021/10/27 01:12:57;;;;;;;1074.43;999.90;;;;;;;11.27;68.07;101708.06;696121;28;22387;-67
2021/10/27 01:13:18;;;;;;;1076.07;999.90;;;;;;;11.28;67.99;101712.47;695727;28;46289;-67
2021/10/27 01:13:40;;;;;;;1071.47;999.47;;;;;;;11.27;68.11;101713.47;693980;28;21540;-66
2021/10/27 01:14:03;;;;;;;1072.57;999.90;;;;;;;11.24;68.27;101703.84;694333;28;23393;-67
2021/10/27 01:14:36;;;;;;;1075.38;999.90;;;;;;;11.27;68.39;101708.91;692738;28;72569;-67
2021/10/27 01:14:57;;;;;;;1079.93;999.90;;;;;;;11.26;68.14;101707.22;689526;28;138737;-67
2021/10/27 01:15:18;;;;;;;1075.20;999.90;;;;;;;11.26;68.21;101704.50;694034;28;23692;-66
2021/10/27 01:15:41;;;;;;;1076.25;999.90;;;;;;;11.25;68.35;101710.06;693074;28;44392;-66
2021/10/27 01:16:02;;;;;;;1077.22;999.90;;;;;;;11.24;68.33;101711.06;693182;28;46391;-67
2021/10/27 01:16:23;;;;;;;1072.93;999.90;;;;;;;11.24;67.91;101711.06;696131;28;23458;-67
2021/10/27 01:16:45;;;;;;;1072.65;999.90;;;;;;;11.24;68.46;101711.06;696386;28;24393;-66
2021/10/27 01:17:09;;;;;;;1078.55;999.90;;;;;;;11.24;68.49;101708.38;695696;28;46282;-66
2021/10/27 01:17:31;;;;;;;1076.57;999.90;;;;;;;11.24;68.26;101719.19;693679;28;113573;-66
2021/10/27 01:17:54;;;;;;;1081.45;999.90;;;;;;;11.23;68.54;101710.22;696362;28;1866;-66
2021/10/27 01:18:15;;;;;;;1078.88;999.90;;;;;;;11.17;68.40;101706.31;694185;28;45241;-66
2021/10/27 01:18:37;;;;;;;1079.82;999.90;;;;;;;11.20;68.50;101707.84;694167;28;21661;-67
2021/10/27 01:18:58;;;;;;;1088.38;999.90;;;;;;;11.20;68.35;101705.13;692880;28;47448;-67
2021/10/27 01:19:19;;;;;;;1076.35;999.90;;;;;;;11.21;68.58;101709.56;694360;28;22353;-66
2021/10/27 01:19:45;;;;;;;1080.75;999.90;;;;;;;11.20;68.51;101704.31;694132;28;21571;-67
2021/10/27 01:20:08;;;;;;;1092.28;999.90;;;;;;;11.20;68.37;101707.00;689866;28;138317;-66
2021/10/27 01:20:29;;;;;;;1086.07;999.90;;;;;;;11.22;68.31;101699.56;692595;28;70614;-66
2021/10/27 01:20:50;;;;;;;1091.55;999.90;;;;;;;11.22;68.39;101703.13;693628;28;23415;-67
2021/10/27 01:21:11;;;;;;;1094.40;999.90;;;;;;;11.21;68.32;101701.44;694072;28;21528;-67
2021/10/27 01:21:33;;;;;;;1078.47;999.90;;;;;;;11.22;68.31;101707.69;694665;28;22386;-67
2021/10/27 01:21:54;;;;;;;1082.07;999.90;;;;;;;11.21;68.39;101706.84;693014;28;45145;-66
2021/10/27 01:22:17;;;;;;;1080.20;999.90;;;;;;;11.23;68.22;101706.69;693594;28;22574;-66
2021/10/27 01:22:40;;;;;;;1080.45;999.90;;;;;;;11.22;68.47;101700.41;692604;28;69334;-67
2021/10/27 01:23:02;;;;;;;1088.40;999.90;;;;;;;11.23;68.44;101699.41;692326;28;69367;-66
2021/10/27 01:23:24;;;;;;;1096.43;999.90;;;;;;;11.23;68.50;101704.00;693498;28;44399;-67
2021/10/27 01:23:45;;;;;;;1093.60;999.90;;;;;;;11.23;68.47;101704.00;693402;28;44401;-67
2021/10/27 01:24:08;;;;;;;1081.78;999.90;;;;;;;11.26;68.16;101700.97;694052;28;23468;-66
2021/10/27 01:24:30;;;;;;;1080.68;999.90;;;;;;;11.26;68.18;101715.31;692535;28;69394;-67
2021/10/27 01:24:51;;;;;;;1082.63;999.90;;;;;;;11.28;68.14;101707.91;693349;28;46176;-67
2021/10/27 01:25:12;;;;;;;1077.22;999.90;;;;;;;11.27;67.99;101694.53;693540;28;23512;-66
2021/10/27 01:25:35;;;;;;;1080.15;999.90;;;;;;;11.28;67.97;101704.34;694198;28;22529;-67
2021/10/27 01:25:57;;;;;;;1079.63;999.90;;;;;;;11.27;68.03;101705.34;691949;28;69281;-66
2021/10/27 01:26:18;;;;;;;1087.38;999.90;;;;;;;11.26;68.04;101707.22;692532;28;46233;-67
2021/10/27 01:26:39;;;;;;;1079.05;999.90;;;;;;;11.24;68.37;101709.25;694506;28;20753;-67
2021/10/27 01:27:01;;;;;;;1074.70;999.90;;;;;;;11.25;68.29;101707.38;693940;28;22375;-66
2021/10/27 01:27:25;;;;;;;1073.15;999.90;;;;;;;11.24;68.22;101708.38;693237;28;46544;-66
2021/10/27 01:27:47;;;;;;;1082.32;999.90;;;;;;;11.24;68.37;101706.53;691234;28;93308;-67
2021/10/27 01:28:09;;;;;;;1081.82;999.90;;;;;;;11.24;68.33;101703.84;692848;28;44446;-66
2021/10/27 01:28:30;;;;;;;1079.95;999.90;;;;;;;11.25;68.09;101700.09;693361;28;45175;-67
2021/10/27 01:28:52;;;;;;;1077.18;999.90;;;;;;;11.24;68.02;101708.38;693260;28;23425;-67
2021/10/27 01:29:17;;;;;;;1076.97;999.90;;;;;;;11.23;68.08;101702.13;693140;28;44359;-66
2021/10/27 01:29:39;;;;;;;1089.18;999.90;;;;;;;11.22;68.15;101713.09;693184;28;38129;-67
2021/10/27 01:30:01;;;;;;;1088.45;999.90;;;;;;;11.22;68.41;101713.09;690528;28;44383;-66
2021/10/27 01:30:23;;;;;;;1090.35;999.90;;;;;;;11.22;68.18;101711.22;691636;28;44417;-67
2021/10/27 01:30:45;;;;;;;1085.63;999.90;;;;;;;11.21;68.44;101704.16;692261;28;47554;-66
2021/10/27 01:31:07;;;;;;;1081.72;999.90;;;;;;;11.22;68.29;101713.09;693438;28;67436;-66
2021/10/27 01:31:28;;;;;;;1095.00;999.90;;;;;;;11.20;68.50;101709.72;694815;28;21509;-66
2021/10/27 01:31:49;;;;;;;1096.38;999.90;;;;;;;11.20;68.36;101704.31;693921;28;45240;-66
2021/10/27 01:32:20;;;;;;;1105.50;999.90;;;;;;;11.20;68.45;101712.41;693879;28;21671;-66
2021/10/27 01:32:43;;;;;;;1097.22;999.90;;;;;;;11.21;68.62;101712.25;690175;28;137475;-66
2021/10/27 01:33:04;;;;;;;1070.90;999.03;;;;;;;11.21;68.57;101711.38;692330;28;69268;-66
2021/10/27 01:33:25;;;;;;;1083.72;999.90;;;;;;;11.22;68.51;101703.13;693971;28;21546;-66
2021/10/27 01:33:46;;;;;;;1082.82;999.90;;;;;;;11.20;68.65;101698.91;693846;28;23294;-66
2021/10/27 01:34:07;;;;;;;1090.07;999.90;;;;;;;11.18;68.28;101704.47;694021;28;22442;-66
2021/10/27 01:34:29;;;;;;;1080.03;999.90;;;;;;;11.18;68.58;101699.06;694459;28;23530;-67
2021/10/27 01:34:52;;;;;;;1091.47;999.90;;;;;;;11.18;68.33;101708.00;693435;28;44408;-67
2021/10/27 01:35:14;;;;;;;1110.60;999.90;;;;;;;11.19;68.66;101703.47;692402;28;46414;-66
2021/10/27 01:35:36;;;;;;;1109.05;999.90;;;;;;;11.21;68.58;101712.25;693016;28;46382;-67
2021/10/27 01:35:57;;;;;;;1066.40;994.65;;;;;;;11.17;68.32;101703.63;692664;28;46297;-66
2021/10/27 01:36:19;;;;;;;1074.78;999.90;;;;;;;11.21;68.57;101700.56;695772;28;22241;-66
2021/10/27 01:36:40;;;;;;;1073.25;999.90;;;;;;;11.21;68.21;101708.69;694805;28;69379;-66
2021/10/27 01:37:02;;;;;;;1076.22;999.90;;;;;;;11.22;68.48;101700.41;696106;28;22377;-66
2021/10/27 01:37:25;;;;;;;1077.00;999.90;;;;;;;11.22;68.42;101703.13;695915;28;46319;-66